sensor_id;sensor_type;location;lat;lon;timestamp;P1;durP1;ratioP1;P2;durP2;ratioP2
13943;SDS011;7044;53.286;8.534;2022-10-17T00:00:59;9.48;;;3.30;;
13943;SDS011;7044;53.286;8.534;2022-10-17T00:03:27;10.75;;;3.47;;
13943;SDS011;7044;53.286;8.534;2022-10-17T00:05:54;8.23;;;3.55;;
13943;SDS011;7044;53.286;8.534;2022-10-17T00:08:21;6.65;;;2.80;;
13943;SDS011;7044;53.286;8.534;2022-10-17T00:10:54;5.25;;;3.13;;
13943;SDS011;7044;53.286;8.534;2022-10-17T00:13:21;6.75;;;3.42;;
13943;SDS011;7044;53.286;8.534;2022-10-17T00:15:50;6.43;;;3.55;;
13943;SDS011;7044;53.286;8.534;2022-10-17T00:18:17;8.00;;;3.13;;
13943;SDS011;7044;53.286;8.534;2022-10-17T00:20:43;16.00;;;3.95;;
13943;SDS011;7044;53.286;8.534;2022-10-17T00:23:10;8.93;;;3.03;;
13943;SDS011;7044;53.286;8.534;2022-10-17T00:25:37;5.70;;;3.17;;
13943;SDS011;7044;53.286;8.534;2022-10-17T00:28:04;6.80;;;3.38;;
13943;SDS011;7044;53.286;8.534;2022-10-17T00:30:31;4.80;;;3.00;;
13943;SDS011;7044;53.286;8.534;2022-10-17T00:33:00;6.00;;;2.97;;
13943;SDS011;7044;53.286;8.534;2022-10-17T00:35:26;4.90;;;3.03;;
13943;SDS011;7044;53.286;8.534;2022-10-17T00:37:53;8.50;;;3.30;;
13943;SDS011;7044;53.286;8.534;2022-10-17T00:40:20;9.13;;;3.35;;
13943;SDS011;7044;53.286;8.534;2022-10-17T00:42:47;6.32;;;2.58;;
13943;SDS011;7044;53.286;8.534;2022-10-17T00:45:19;8.07;;;3.00;;
13943;SDS011;7044;53.286;8.534;2022-10-17T00:47:50;4.05;;;2.78;;
13943;SDS011;7044;53.286;8.534;2022-10-17T00:50:21;8.10;;;2.75;;
13943;SDS011;7044;53.286;8.534;2022-10-17T00:52:50;9.18;;;3.10;;
13943;SDS011;7044;53.286;8.534;2022-10-17T00:55:19;3.78;;;2.80;;
13943;SDS011;7044;53.286;8.534;2022-10-17T00:57:49;6.53;;;3.00;;
13943;SDS011;7044;53.286;8.534;2022-10-17T01:00:17;8.10;;;3.10;;
13943;SDS011;7044;53.286;8.534;2022-10-17T01:02:45;7.22;;;2.90;;
13943;SDS011;7044;53.286;8.534;2022-10-17T01:05:12;4.20;;;2.63;;
13943;SDS011;7044;53.286;8.534;2022-10-17T01:07:41;6.25;;;2.83;;
13943;SDS011;7044;53.286;8.534;2022-10-17T01:10:09;5.20;;;2.90;;
13943;SDS011;7044;53.286;8.534;2022-10-17T01:12:40;3.63;;;2.50;;
13943;SDS011;7044;53.286;8.534;2022-10-17T01:15:20;3.60;;;2.40;;
13943;SDS011;7044;53.286;8.534;2022-10-17T01:17:57;4.63;;;2.88;;
13943;SDS011;7044;53.286;8.534;2022-10-17T01:20:42;8.55;;;3.15;;
13943;SDS011;7044;53.286;8.534;2022-10-17T01:23:41;4.60;;;2.80;;
13943;SDS011;7044;53.286;8.534;2022-10-17T01:26:43;6.28;;;2.50;;
13943;SDS011;7044;53.286;8.534;2022-10-17T01:29:34;4.07;;;2.58;;
13943;SDS011;7044;53.286;8.534;2022-10-17T01:32:18;8.25;;;2.60;;
13943;SDS011;7044;53.286;8.534;2022-10-17T01:34:52;3.75;;;2.47;;
13943;SDS011;7044;53.286;8.534;2022-10-17T01:37:25;5.30;;;2.83;;
13943;SDS011;7044;53.286;8.534;2022-10-17T01:39:59;8.43;;;2.75;;
13943;SDS011;7044;53.286;8.534;2022-10-17T01:42:33;5.40;;;2.75;;
13943;SDS011;7044;53.286;8.534;2022-10-17T01:45:05;10.02;;;2.50;;
13943;SDS011;7044;53.286;8.534;2022-10-17T01:47:38;4.82;;;2.47;;
13943;SDS011;7044;53.286;8.534;2022-10-17T01:50:09;8.88;;;3.10;;
13943;SDS011;7044;53.286;8.534;2022-10-17T01:52:41;4.25;;;2.40;;
13943;SDS011;7044;53.286;8.534;2022-10-17T01:55:12;8.90;;;2.83;;
13943;SDS011;7044;53.286;8.534;2022-10-17T01:57:44;4.95;;;2.58;;
13943;SDS011;7044;53.286;8.534;2022-10-17T02:00:16;5.32;;;2.67;;
13943;SDS011;7044;53.286;8.534;2022-10-17T02:02:46;4.72;;;2.35;;
13943;SDS011;7044;53.286;8.534;2022-10-17T02:05:15;3.38;;;2.45;;
13943;SDS011;7044;53.286;8.534;2022-10-17T02:07:43;8.43;;;2.38;;
13943;SDS011;7044;53.286;8.534;2022-10-17T02:10:11;2.65;;;2.17;;
13943;SDS011;7044;53.286;8.534;2022-10-17T02:12:46;3.40;;;2.10;;
13943;SDS011;7044;53.286;8.534;2022-10-17T02:15:24;6.72;;;2.47;;
13943;SDS011;7044;53.286;8.534;2022-10-17T02:18:02;6.32;;;2.63;;
13943;SDS011;7044;53.286;8.534;2022-10-17T02:20:43;4.28;;;2.20;;
13943;SDS011;7044;53.286;8.534;2022-10-17T02:23:17;5.00;;;2.22;;
13943;SDS011;7044;53.286;8.534;2022-10-17T02:25:50;3.65;;;2.25;;
13943;SDS011;7044;53.286;8.534;2022-10-17T02:28:26;4.80;;;2.25;;
13943;SDS011;7044;53.286;8.534;2022-10-17T02:30:59;3.72;;;2.35;;
13943;SDS011;7044;53.286;8.534;2022-10-17T02:33:31;3.53;;;2.38;;
13943;SDS011;7044;53.286;8.534;2022-10-17T02:36:03;4.53;;;2.45;;
13943;SDS011;7044;53.286;8.534;2022-10-17T02:38:34;2.05;;;1.85;;
13943;SDS011;7044;53.286;8.534;2022-10-17T02:41:01;2.63;;;1.98;;
13943;SDS011;7044;53.286;8.534;2022-10-17T02:43:31;2.22;;;2.05;;
13943;SDS011;7044;53.286;8.534;2022-10-17T02:45:59;3.35;;;2.20;;
13943;SDS011;7044;53.286;8.534;2022-10-17T02:48:27;3.78;;;2.45;;
13943;SDS011;7044;53.286;8.534;2022-10-17T02:51:01;2.95;;;2.25;;
13943;SDS011;7044;53.286;8.534;2022-10-17T02:53:33;2.40;;;2.20;;
13943;SDS011;7044;53.286;8.534;2022-10-17T02:56:05;4.38;;;2.05;;
13943;SDS011;7044;53.286;8.534;2022-10-17T02:58:37;2.58;;;1.83;;
13943;SDS011;7044;53.286;8.534;2022-10-17T03:01:05;4.35;;;2.30;;
13943;SDS011;7044;53.286;8.534;2022-10-17T03:03:34;3.03;;;2.30;;
13943;SDS011;7044;53.286;8.534;2022-10-17T03:06:00;6.13;;;2.47;;
13943;SDS011;7044;53.286;8.534;2022-10-17T03:08:27;3.47;;;2.42;;
13943;SDS011;7044;53.286;8.534;2022-10-17T03:10:54;3.90;;;2.42;;
13943;SDS011;7044;53.286;8.534;2022-10-17T03:13:21;4.03;;;2.38;;
13943;SDS011;7044;53.286;8.534;2022-10-17T03:15:48;4.53;;;2.67;;
13943;SDS011;7044;53.286;8.534;2022-10-17T03:18:14;3.58;;;2.40;;
13943;SDS011;7044;53.286;8.534;2022-10-17T03:20:43;4.47;;;2.47;;
13943;SDS011;7044;53.286;8.534;2022-10-17T03:23:09;7.63;;;2.83;;
13943;SDS011;7044;53.286;8.534;2022-10-17T03:25:36;3.10;;;2.55;;
13943;SDS011;7044;53.286;8.534;2022-10-17T03:28:03;5.20;;;2.55;;
13943;SDS011;7044;53.286;8.534;2022-10-17T03:30:30;6.57;;;2.47;;
13943;SDS011;7044;53.286;8.534;2022-10-17T03:32:57;4.55;;;2.53;;
13943;SDS011;7044;53.286;8.534;2022-10-17T03:35:24;5.90;;;2.70;;
13943;SDS011;7044;53.286;8.534;2022-10-17T03:37:53;5.20;;;2.22;;
13943;SDS011;7044;53.286;8.534;2022-10-17T03:40:20;5.85;;;2.67;;
13943;SDS011;7044;53.286;8.534;2022-10-17T03:42:47;3.08;;;2.40;;
13943;SDS011;7044;53.286;8.534;2022-10-17T03:45:14;7.78;;;2.83;;
13943;SDS011;7044;53.286;8.534;2022-10-17T03:47:41;5.97;;;2.70;;
13943;SDS011;7044;53.286;8.534;2022-10-17T03:50:08;2.60;;;2.40;;
13943;SDS011;7044;53.286;8.534;2022-10-17T03:52:35;6.55;;;2.58;;
13943;SDS011;7044;53.286;8.534;2022-10-17T03:55:03;4.85;;;2.60;;
13943;SDS011;7044;53.286;8.534;2022-10-17T03:57:30;2.97;;;2.65;;
13943;SDS011;7044;53.286;8.534;2022-10-17T03:59:59;2.97;;;2.67;;
13943;SDS011;7044;53.286;8.534;2022-10-17T04:02:25;3.22;;;2.33;;
13943;SDS011;7044;53.286;8.534;2022-10-17T04:04:52;5.72;;;2.50;;
13943;SDS011;7044;53.286;8.534;2022-10-17T04:07:19;3.90;;;2.80;;
13943;SDS011;7044;53.286;8.534;2022-10-17T04:09:46;7.88;;;2.65;;
13943;SDS011;7044;53.286;8.534;2022-10-17T04:12:14;3.50;;;2.85;;
13943;SDS011;7044;53.286;8.534;2022-10-17T04:14:41;4.30;;;2.30;;
13943;SDS011;7044;53.286;8.534;2022-10-17T04:17:07;3.40;;;2.60;;
13943;SDS011;7044;53.286;8.534;2022-10-17T04:19:34;4.10;;;2.95;;
13943;SDS011;7044;53.286;8.534;2022-10-17T04:22:01;5.15;;;2.65;;
13943;SDS011;7044;53.286;8.534;2022-10-17T04:24:28;6.05;;;4.38;;
13943;SDS011;7044;53.286;8.534;2022-10-17T04:26:55;3.53;;;2.60;;
13943;SDS011;7044;53.286;8.534;2022-10-17T04:29:23;6.97;;;3.22;;
13943;SDS011;7044;53.286;8.534;2022-10-17T04:31:50;2.60;;;2.40;;
13943;SDS011;7044;53.286;8.534;2022-10-17T04:34:17;4.90;;;2.40;;
13943;SDS011;7044;53.286;8.534;2022-10-17T04:36:44;10.40;;;2.90;;
13943;SDS011;7044;53.286;8.534;2022-10-17T04:39:11;6.18;;;3.20;;
13943;SDS011;7044;53.286;8.534;2022-10-17T04:41:38;4.32;;;2.70;;
13943;SDS011;7044;53.286;8.534;2022-10-17T04:44:05;4.78;;;3.13;;
13943;SDS011;7044;53.286;8.534;2022-10-17T04:46:33;3.08;;;2.80;;
13943;SDS011;7044;53.286;8.534;2022-10-17T04:49:00;3.30;;;3.00;;
13943;SDS011;7044;53.286;8.534;2022-10-17T04:51:27;4.82;;;2.88;;
13943;SDS011;7044;53.286;8.534;2022-10-17T04:53:54;4.10;;;2.88;;
13943;SDS011;7044;53.286;8.534;2022-10-17T04:56:21;9.98;;;2.92;;
13943;SDS011;7044;53.286;8.534;2022-10-17T04:58:49;6.38;;;2.97;;
13943;SDS011;7044;53.286;8.534;2022-10-17T05:01:17;5.10;;;2.90;;
13943;SDS011;7044;53.286;8.534;2022-10-17T05:03:48;8.73;;;3.65;;
13943;SDS011;7044;53.286;8.534;2022-10-17T05:06:15;3.13;;;2.83;;
13943;SDS011;7044;53.286;8.534;2022-10-17T05:08:43;6.15;;;3.00;;
13943;SDS011;7044;53.286;8.534;2022-10-17T05:11:17;3.20;;;2.90;;
13943;SDS011;7044;53.286;8.534;2022-10-17T05:13:48;5.30;;;2.83;;
13943;SDS011;7044;53.286;8.534;2022-10-17T05:16:16;2.85;;;2.65;;
13943;SDS011;7044;53.286;8.534;2022-10-17T05:18:43;8.25;;;3.08;;
13943;SDS011;7044;53.286;8.534;2022-10-17T05:21:11;4.55;;;3.50;;
13943;SDS011;7044;53.286;8.534;2022-10-17T05:23:38;9.48;;;3.08;;
13943;SDS011;7044;53.286;8.534;2022-10-17T05:26:04;6.13;;;3.10;;
13943;SDS011;7044;53.286;8.534;2022-10-17T05:28:32;8.23;;;3.10;;
13943;SDS011;7044;53.286;8.534;2022-10-17T05:31:01;4.03;;;3.30;;
13943;SDS011;7044;53.286;8.534;2022-10-17T05:33:28;4.28;;;3.03;;
13943;SDS011;7044;53.286;8.534;2022-10-17T05:35:55;4.13;;;3.17;;
13943;SDS011;7044;53.286;8.534;2022-10-17T05:38:24;6.18;;;3.50;;
13943;SDS011;7044;53.286;8.534;2022-10-17T05:40:51;9.55;;;3.25;;
13943;SDS011;7044;53.286;8.534;2022-10-17T05:43:21;6.65;;;3.72;;
13943;SDS011;7044;53.286;8.534;2022-10-17T05:45:48;5.35;;;3.38;;
13943;SDS011;7044;53.286;8.534;2022-10-17T05:48:15;6.35;;;3.47;;
13943;SDS011;7044;53.286;8.534;2022-10-17T05:50:42;4.47;;;3.80;;
13943;SDS011;7044;53.286;8.534;2022-10-17T05:53:09;5.28;;;4.03;;
13943;SDS011;7044;53.286;8.534;2022-10-17T05:55:37;7.63;;;3.50;;
13943;SDS011;7044;53.286;8.534;2022-10-17T05:58:04;5.40;;;3.60;;
13943;SDS011;7044;53.286;8.534;2022-10-17T06:00:31;4.60;;;3.50;;
13943;SDS011;7044;53.286;8.534;2022-10-17T06:02:57;7.38;;;3.80;;
13943;SDS011;7044;53.286;8.534;2022-10-17T06:05:24;4.45;;;3.15;;
13943;SDS011;7044;53.286;8.534;2022-10-17T06:07:51;9.15;;;3.70;;
13943;SDS011;7044;53.286;8.534;2022-10-17T06:10:18;4.00;;;3.60;;
13943;SDS011;7044;53.286;8.534;2022-10-17T06:12:46;6.47;;;3.90;;
13943;SDS011;7044;53.286;8.534;2022-10-17T06:15:13;7.82;;;3.72;;
13943;SDS011;7044;53.286;8.534;2022-10-17T06:17:40;10.82;;;3.90;;
13943;SDS011;7044;53.286;8.534;2022-10-17T06:20:07;4.43;;;3.63;;
13943;SDS011;7044;53.286;8.534;2022-10-17T06:22:34;4.13;;;3.72;;
13943;SDS011;7044;53.286;8.534;2022-10-17T06:25:01;5.60;;;3.70;;
13943;SDS011;7044;53.286;8.534;2022-10-17T06:27:28;5.20;;;4.03;;
13943;SDS011;7044;53.286;8.534;2022-10-17T06:29:56;4.13;;;3.70;;
13943;SDS011;7044;53.286;8.534;2022-10-17T06:32:22;5.22;;;3.60;;
13943;SDS011;7044;53.286;8.534;2022-10-17T06:34:49;9.85;;;3.90;;
13943;SDS011;7044;53.286;8.534;2022-10-17T06:37:16;6.90;;;3.85;;
13943;SDS011;7044;53.286;8.534;2022-10-17T06:39:43;6.15;;;3.60;;
13943;SDS011;7044;53.286;8.534;2022-10-17T06:42:10;5.68;;;3.60;;
13943;SDS011;7044;53.286;8.534;2022-10-17T06:44:36;4.13;;;3.72;;
13943;SDS011;7044;53.286;8.534;2022-10-17T06:47:06;5.10;;;3.88;;
13943;SDS011;7044;53.286;8.534;2022-10-17T06:49:34;6.90;;;3.88;;
13943;SDS011;7044;53.286;8.534;2022-10-17T06:52:01;4.60;;;3.33;;
13943;SDS011;7044;53.286;8.534;2022-10-17T06:54:28;7.55;;;3.55;;
13943;SDS011;7044;53.286;8.534;2022-10-17T06:56:55;6.32;;;3.60;;
13943;SDS011;7044;53.286;8.534;2022-10-17T06:59:22;5.38;;;3.70;;
13943;SDS011;7044;53.286;8.534;2022-10-17T07:01:48;8.93;;;3.70;;
13943;SDS011;7044;53.286;8.534;2022-10-17T07:04:17;6.38;;;3.90;;
13943;SDS011;7044;53.286;8.534;2022-10-17T07:06:43;8.23;;;3.63;;
13943;SDS011;7044;53.286;8.534;2022-10-17T07:09:10;4.57;;;3.80;;
13943;SDS011;7044;53.286;8.534;2022-10-17T07:11:37;4.80;;;3.28;;
13943;SDS011;7044;53.286;8.534;2022-10-17T07:14:04;7.70;;;4.00;;
13943;SDS011;7044;53.286;8.534;2022-10-17T07:16:31;9.85;;;3.53;;
13943;SDS011;7044;53.286;8.534;2022-10-17T07:18:58;3.78;;;3.38;;
13943;SDS011;7044;53.286;8.534;2022-10-17T07:21:31;3.58;;;3.28;;
13943;SDS011;7044;53.286;8.534;2022-10-17T07:23:58;4.03;;;3.38;;
13943;SDS011;7044;53.286;8.534;2022-10-17T07:26:25;5.38;;;3.47;;
13943;SDS011;7044;53.286;8.534;2022-10-17T07:28:53;4.30;;;3.67;;
13943;SDS011;7044;53.286;8.534;2022-10-17T07:31:21;7.63;;;3.50;;
13943;SDS011;7044;53.286;8.534;2022-10-17T07:33:48;3.80;;;3.25;;
13943;SDS011;7044;53.286;8.534;2022-10-17T07:36:16;4.13;;;3.08;;
13943;SDS011;7044;53.286;8.534;2022-10-17T07:38:45;7.50;;;3.53;;
13943;SDS011;7044;53.286;8.534;2022-10-17T07:41:12;6.10;;;3.40;;
13943;SDS011;7044;53.286;8.534;2022-10-17T07:43:38;3.95;;;3.00;;
13943;SDS011;7044;53.286;8.534;2022-10-17T07:46:07;4.45;;;3.20;;
13943;SDS011;7044;53.286;8.534;2022-10-17T07:48:35;4.85;;;3.28;;
13943;SDS011;7044;53.286;8.534;2022-10-17T07:51:03;4.05;;;3.65;;
13943;SDS011;7044;53.286;8.534;2022-10-17T07:53:31;4.88;;;3.38;;
13943;SDS011;7044;53.286;8.534;2022-10-17T07:56:03;4.57;;;3.00;;
13943;SDS011;7044;53.286;8.534;2022-10-17T07:58:31;9.68;;;4.45;;
13943;SDS011;7044;53.286;8.534;2022-10-17T08:00:59;4.07;;;3.55;;
13943;SDS011;7044;53.286;8.534;2022-10-17T08:03:26;3.90;;;3.38;;
13943;SDS011;7044;53.286;8.534;2022-10-17T08:05:55;5.28;;;3.53;;
13943;SDS011;7044;53.286;8.534;2022-10-17T08:08:23;6.93;;;3.90;;
13943;SDS011;7044;53.286;8.534;2022-10-17T08:10:50;5.20;;;3.58;;
13943;SDS011;7044;53.286;8.534;2022-10-17T08:13:19;5.97;;;3.72;;
13943;SDS011;7044;53.286;8.534;2022-10-17T08:15:46;5.72;;;3.78;;
13943;SDS011;7044;53.286;8.534;2022-10-17T08:18:13;4.38;;;3.60;;
13943;SDS011;7044;53.286;8.534;2022-10-17T08:20:41;4.05;;;3.60;;
13943;SDS011;7044;53.286;8.534;2022-10-17T08:23:09;6.25;;;3.70;;
13943;SDS011;7044;53.286;8.534;2022-10-17T08:25:36;7.88;;;4.05;;
13943;SDS011;7044;53.286;8.534;2022-10-17T08:28:04;5.53;;;3.70;;
13943;SDS011;7044;53.286;8.534;2022-10-17T08:30:32;5.57;;;3.47;;
13943;SDS011;7044;53.286;8.534;2022-10-17T08:32:59;7.97;;;3.80;;
13943;SDS011;7044;53.286;8.534;2022-10-17T08:35:27;5.80;;;3.58;;
13943;SDS011;7044;53.286;8.534;2022-10-17T08:37:54;4.43;;;3.83;;
13943;SDS011;7044;53.286;8.534;2022-10-17T08:40:21;5.93;;;3.47;;
13943;SDS011;7044;53.286;8.534;2022-10-17T08:42:58;7.72;;;4.32;;
13943;SDS011;7044;53.286;8.534;2022-10-17T08:45:37;5.50;;;3.80;;
13943;SDS011;7044;53.286;8.534;2022-10-17T08:48:11;3.40;;;3.05;;
13943;SDS011;7044;53.286;8.534;2022-10-17T08:50:41;8.38;;;4.15;;
13943;SDS011;7044;53.286;8.534;2022-10-17T08:53:13;5.63;;;4.10;;
13943;SDS011;7044;53.286;8.534;2022-10-17T08:55:45;4.35;;;3.50;;
13943;SDS011;7044;53.286;8.534;2022-10-17T08:58:13;13.20;;;4.03;;
13943;SDS011;7044;53.286;8.534;2022-10-17T09:00:47;5.68;;;4.30;;
13943;SDS011;7044;53.286;8.534;2022-10-17T09:03:21;5.07;;;4.05;;
13943;SDS011;7044;53.286;8.534;2022-10-17T09:06:02;6.68;;;4.07;;
13943;SDS011;7044;53.286;8.534;2022-10-17T09:08:38;4.55;;;4.15;;
13943;SDS011;7044;53.286;8.534;2022-10-17T09:11:13;4.35;;;3.85;;
13943;SDS011;7044;53.286;8.534;2022-10-17T09:13:53;9.27;;;5.72;;
13943;SDS011;7044;53.286;8.534;2022-10-17T09:16:34;5.38;;;3.50;;
13943;SDS011;7044;53.286;8.534;2022-10-17T09:19:16;13.52;;;4.53;;
13943;SDS011;7044;53.286;8.534;2022-10-17T09:21:47;10.55;;;3.40;;
13943;SDS011;7044;53.286;8.534;2022-10-17T09:24:18;5.20;;;3.92;;
13943;SDS011;7044;53.286;8.534;2022-10-17T09:26:50;6.90;;;4.50;;
13943;SDS011;7044;53.286;8.534;2022-10-17T09:29:19;4.85;;;4.35;;
13943;SDS011;7044;53.286;8.534;2022-10-17T09:31:50;4.93;;;3.95;;
13943;SDS011;7044;53.286;8.534;2022-10-17T09:34:23;6.18;;;4.10;;
13943;SDS011;7044;53.286;8.534;2022-10-17T09:36:52;8.23;;;3.53;;
13943;SDS011;7044;53.286;8.534;2022-10-17T09:39:20;8.77;;;4.30;;
13943;SDS011;7044;53.286;8.534;2022-10-17T09:41:51;4.80;;;3.97;;
13943;SDS011;7044;53.286;8.534;2022-10-17T09:44:20;5.75;;;4.43;;
13943;SDS011;7044;53.286;8.534;2022-10-17T09:49:40;7.38;;;4.97;;
13943;SDS011;7044;53.286;8.534;2022-10-17T09:52:10;10.30;;;4.68;;
13943;SDS011;7044;53.286;8.534;2022-10-17T09:54:40;6.60;;;3.90;;
13943;SDS011;7044;53.286;8.534;2022-10-17T09:57:10;4.78;;;3.95;;
13943;SDS011;7044;53.286;8.534;2022-10-17T09:59:38;9.50;;;3.80;;
13943;SDS011;7044;53.286;8.534;2022-10-17T10:02:07;7.53;;;4.40;;
13943;SDS011;7044;53.286;8.534;2022-10-17T10:04:45;9.10;;;3.83;;
13943;SDS011;7044;53.286;8.534;2022-10-17T10:07:24;9.50;;;4.32;;
13943;SDS011;7044;53.286;8.534;2022-10-17T10:09:53;8.43;;;4.20;;
13943;SDS011;7044;53.286;8.534;2022-10-17T10:12:22;5.10;;;4.10;;
13943;SDS011;7044;53.286;8.534;2022-10-17T10:14:50;6.32;;;4.32;;
13943;SDS011;7044;53.286;8.534;2022-10-17T10:17:28;3.95;;;2.67;;
13943;SDS011;7044;53.286;8.534;2022-10-17T10:20:02;4.13;;;3.13;;
13943;SDS011;7044;53.286;8.534;2022-10-17T10:23:05;7.35;;;2.85;;
13943;SDS011;7044;53.286;8.534;2022-10-17T10:25:53;7.35;;;3.95;;
13943;SDS011;7044;53.286;8.534;2022-10-17T10:28:22;5.50;;;4.25;;
13943;SDS011;7044;53.286;8.534;2022-10-17T10:30:53;6.00;;;3.95;;
13943;SDS011;7044;53.286;8.534;2022-10-17T10:33:22;11.25;;;4.22;;
13943;SDS011;7044;53.286;8.534;2022-10-17T10:35:57;6.95;;;3.92;;
13943;SDS011;7044;53.286;8.534;2022-10-17T10:38:27;10.02;;;4.32;;
13943;SDS011;7044;53.286;8.534;2022-10-17T10:40:55;6.65;;;4.90;;
13943;SDS011;7044;53.286;8.534;2022-10-17T10:43:29;8.18;;;4.57;;
13943;SDS011;7044;53.286;8.534;2022-10-17T10:45:58;7.22;;;4.80;;
13943;SDS011;7044;53.286;8.534;2022-10-17T10:48:28;7.60;;;4.85;;
13943;SDS011;7044;53.286;8.534;2022-10-17T10:50:59;10.20;;;4.95;;
13943;SDS011;7044;53.286;8.534;2022-10-17T10:53:35;7.85;;;5.00;;
13943;SDS011;7044;53.286;8.534;2022-10-17T10:56:09;10.18;;;5.28;;
13943;SDS011;7044;53.286;8.534;2022-10-17T10:58:46;7.40;;;5.10;;
13943;SDS011;7044;53.286;8.534;2022-10-17T11:01:20;7.22;;;4.70;;
13943;SDS011;7044;53.286;8.534;2022-10-17T11:03:55;9.10;;;5.50;;
13943;SDS011;7044;53.286;8.534;2022-10-17T11:06:34;7.13;;;5.40;;
13943;SDS011;7044;53.286;8.534;2022-10-17T11:09:05;7.78;;;5.60;;
13943;SDS011;7044;53.286;8.534;2022-10-17T11:11:39;7.35;;;5.75;;
13943;SDS011;7044;53.286;8.534;2022-10-17T11:14:11;12.20;;;5.80;;
13943;SDS011;7044;53.286;8.534;2022-10-17T11:16:43;10.38;;;5.70;;
13943;SDS011;7044;53.286;8.534;2022-10-17T11:19:15;7.47;;;6.43;;
13943;SDS011;7044;53.286;8.534;2022-10-17T11:21:54;11.00;;;5.57;;
13943;SDS011;7044;53.286;8.534;2022-10-17T11:24:29;9.65;;;5.82;;
13943;SDS011;7044;53.286;8.534;2022-10-17T11:27:01;14.68;;;5.72;;
13943;SDS011;7044;53.286;8.534;2022-10-17T11:29:30;12.50;;;5.65;;
13943;SDS011;7044;53.286;8.534;2022-10-17T11:32:00;5.85;;;5.00;;
13943;SDS011;7044;53.286;8.534;2022-10-17T11:34:31;9.32;;;5.10;;
13943;SDS011;7044;53.286;8.534;2022-10-17T11:37:04;9.80;;;5.50;;
13943;SDS011;7044;53.286;8.534;2022-10-17T11:39:39;9.15;;;5.82;;
13943;SDS011;7044;53.286;8.534;2022-10-17T11:42:13;8.02;;;5.60;;
13943;SDS011;7044;53.286;8.534;2022-10-17T11:44:43;7.72;;;5.18;;
13943;SDS011;7044;53.286;8.534;2022-10-17T11:47:12;7.88;;;5.50;;
13943;SDS011;7044;53.286;8.534;2022-10-17T11:49:46;8.35;;;5.55;;
13943;SDS011;7044;53.286;8.534;2022-10-17T11:52:21;7.88;;;5.57;;
13943;SDS011;7044;53.286;8.534;2022-10-17T11:54:56;9.43;;;5.65;;
13943;SDS011;7044;53.286;8.534;2022-10-17T11:57:36;8.57;;;5.68;;
13943;SDS011;7044;53.286;8.534;2022-10-17T12:00:17;9.10;;;5.60;;
13943;SDS011;7044;53.286;8.534;2022-10-17T12:02:50;9.73;;;6.10;;
13943;SDS011;7044;53.286;8.534;2022-10-17T12:05:23;12.63;;;6.10;;
13943;SDS011;7044;53.286;8.534;2022-10-17T12:07:57;10.88;;;6.85;;
13943;SDS011;7044;53.286;8.534;2022-10-17T12:10:32;10.38;;;7.10;;
13943;SDS011;7044;53.286;8.534;2022-10-17T12:19:27;8.73;;;6.68;;
13943;SDS011;7044;53.286;8.534;2022-10-17T12:24:55;8.60;;;6.97;;
13943;SDS011;7044;53.286;8.534;2022-10-17T12:27:31;9.02;;;6.65;;
13943;SDS011;7044;53.286;8.534;2022-10-17T12:30:20;11.30;;;6.80;;
13943;SDS011;7044;53.286;8.534;2022-10-17T12:35:45;9.13;;;6.88;;
13943;SDS011;7044;53.286;8.534;2022-10-17T12:38:14;7.47;;;6.75;;
13943;SDS011;7044;53.286;8.534;2022-10-17T12:40:50;7.97;;;6.88;;
13943;SDS011;7044;53.286;8.534;2022-10-17T12:43:35;10.23;;;6.85;;
13943;SDS011;7044;53.286;8.534;2022-10-17T12:46:39;11.05;;;6.85;;
13943;SDS011;7044;53.286;8.534;2022-10-17T12:52:20;10.30;;;7.97;;
13943;SDS011;7044;53.286;8.534;2022-10-17T12:54:55;10.48;;;8.65;;
13943;SDS011;7044;53.286;8.534;2022-10-17T12:57:34;13.45;;;9.18;;
13943;SDS011;7044;53.286;8.534;2022-10-17T13:00:11;9.50;;;8.40;;
13943;SDS011;7044;53.286;8.534;2022-10-17T13:02:43;12.10;;;10.18;;
13943;SDS011;7044;53.286;8.534;2022-10-17T13:05:12;13.23;;;8.85;;
13943;SDS011;7044;53.286;8.534;2022-10-17T13:07:41;10.63;;;8.52;;
13943;SDS011;7044;53.286;8.534;2022-10-17T13:10:16;10.13;;;8.07;;
13943;SDS011;7044;53.286;8.534;2022-10-17T13:12:47;17.02;;;8.20;;
13943;SDS011;7044;53.286;8.534;2022-10-17T13:15:16;11.90;;;8.23;;
13943;SDS011;7044;53.286;8.534;2022-10-17T13:17:45;12.70;;;8.23;;
13943;SDS011;7044;53.286;8.534;2022-10-17T13:20:22;8.95;;;6.35;;
13943;SDS011;7044;53.286;8.534;2022-10-17T13:22:52;10.45;;;6.90;;
13943;SDS011;7044;53.286;8.534;2022-10-17T13:25:19;9.75;;;6.40;;
13943;SDS011;7044;53.286;8.534;2022-10-17T13:27:48;11.40;;;6.80;;
13943;SDS011;7044;53.286;8.534;2022-10-17T13:30:20;12.85;;;7.57;;
13943;SDS011;7044;53.286;8.534;2022-10-17T13:32:50;8.25;;;7.40;;
13943;SDS011;7044;53.286;8.534;2022-10-17T13:35:21;12.45;;;7.82;;
13943;SDS011;7044;53.286;8.534;2022-10-17T13:37:50;10.55;;;7.72;;
13943;SDS011;7044;53.286;8.534;2022-10-17T13:40:20;14.73;;;6.85;;
13943;SDS011;7044;53.286;8.534;2022-10-17T13:42:50;9.43;;;6.30;;
13943;SDS011;7044;53.286;8.534;2022-10-17T13:45:19;6.53;;;5.47;;
13943;SDS011;7044;53.286;8.534;2022-10-17T13:47:52;6.43;;;5.65;;
13943;SDS011;7044;53.286;8.534;2022-10-17T13:50:23;6.90;;;5.85;;
13943;SDS011;7044;53.286;8.534;2022-10-17T13:55:50;13.43;;;5.95;;
13943;SDS011;7044;53.286;8.534;2022-10-17T13:58:22;11.63;;;6.22;;
13943;SDS011;7044;53.286;8.534;2022-10-17T14:00:50;9.43;;;5.60;;
13943;SDS011;7044;53.286;8.534;2022-10-17T14:03:18;7.28;;;5.45;;
13943;SDS011;7044;53.286;8.534;2022-10-17T14:05:59;10.45;;;5.43;;
13943;SDS011;7044;53.286;8.534;2022-10-17T14:08:30;12.27;;;4.93;;
13943;SDS011;7044;53.286;8.534;2022-10-17T14:10:59;5.63;;;4.80;;
13943;SDS011;7044;53.286;8.534;2022-10-17T14:13:28;12.10;;;6.18;;
13943;SDS011;7044;53.286;8.534;2022-10-17T14:16:00;6.97;;;5.40;;
13943;SDS011;7044;53.286;8.534;2022-10-17T14:18:28;10.40;;;5.55;;
13943;SDS011;7044;53.286;8.534;2022-10-17T14:20:59;6.00;;;4.68;;
13943;SDS011;7044;53.286;8.534;2022-10-17T14:23:36;8.90;;;5.18;;
13943;SDS011;7044;53.286;8.534;2022-10-17T14:26:05;5.28;;;4.20;;
13943;SDS011;7044;53.286;8.534;2022-10-17T14:28:36;11.60;;;4.75;;
13943;SDS011;7044;53.286;8.534;2022-10-17T14:31:10;13.57;;;4.38;;
13943;SDS011;7044;53.286;8.534;2022-10-17T14:33:46;5.20;;;4.53;;
13943;SDS011;7044;53.286;8.534;2022-10-17T14:36:14;4.25;;;3.47;;
13943;SDS011;7044;53.286;8.534;2022-10-17T14:38:43;6.43;;;4.70;;
13943;SDS011;7044;53.286;8.534;2022-10-17T14:41:13;4.60;;;3.83;;
13943;SDS011;7044;53.286;8.534;2022-10-17T14:43:45;10.15;;;3.90;;
13943;SDS011;7044;53.286;8.534;2022-10-17T14:46:18;9.73;;;3.45;;
13943;SDS011;7044;53.286;8.534;2022-10-17T14:48:45;5.10;;;4.45;;
13943;SDS011;7044;53.286;8.534;2022-10-17T14:51:20;6.60;;;4.45;;
13943;SDS011;7044;53.286;8.534;2022-10-17T14:54:01;5.32;;;3.80;;
13943;SDS011;7044;53.286;8.534;2022-10-17T14:56:35;6.65;;;3.90;;
13943;SDS011;7044;53.286;8.534;2022-10-17T14:59:06;5.00;;;3.90;;
13943;SDS011;7044;53.286;8.534;2022-10-17T15:01:35;4.25;;;3.15;;
13943;SDS011;7044;53.286;8.534;2022-10-17T15:04:02;5.22;;;3.80;;
13943;SDS011;7044;53.286;8.534;2022-10-17T15:06:29;4.18;;;3.67;;
13943;SDS011;7044;53.286;8.534;2022-10-17T15:08:58;4.45;;;4.03;;
13943;SDS011;7044;53.286;8.534;2022-10-17T15:11:26;4.63;;;4.20;;
13943;SDS011;7044;53.286;8.534;2022-10-17T15:13:52;4.53;;;3.63;;
13943;SDS011;7044;53.286;8.534;2022-10-17T15:16:21;6.55;;;3.55;;
13943;SDS011;7044;53.286;8.534;2022-10-17T15:18:49;6.63;;;4.18;;
13943;SDS011;7044;53.286;8.534;2022-10-17T15:21:18;12.80;;;4.57;;
13943;SDS011;7044;53.286;8.534;2022-10-17T15:23:46;4.07;;;3.50;;
13943;SDS011;7044;53.286;8.534;2022-10-17T15:26:14;4.35;;;3.92;;
13943;SDS011;7044;53.286;8.534;2022-10-17T15:28:42;6.72;;;3.80;;
13943;SDS011;7044;53.286;8.534;2022-10-17T15:31:10;6.95;;;3.47;;
13943;SDS011;7044;53.286;8.534;2022-10-17T15:33:40;4.38;;;3.60;;
13943;SDS011;7044;53.286;8.534;2022-10-17T15:36:17;8.48;;;3.80;;
13943;SDS011;7044;53.286;8.534;2022-10-17T15:38:46;4.50;;;3.50;;
13943;SDS011;7044;53.286;8.534;2022-10-17T15:41:13;4.75;;;3.70;;